Time;durP1;ratioP1;P1;durP2;ratioP2;P2;SDS_P1;SDS_P2;PMS_P1;PMS_P2;Temp;Humidity;BMP_temperature;BMP_pressure;BME280_temperature;BME280_humidity;BME280_pressure;Samples;Min_cycle;Max_cycle;Signal;HPM_P1;HPM_P2
2022/08/21 00:00:37;;;;;;;4.55;3.55;;;;;;;16.09;100;95459.06;;;;
2022/08/21 00:01:38;;;;;;;4.55;3.55;;;;;;;16.09;100;95459.06;;;;
2022/08/21 00:02:39;;;;;;;4.55;3.55;;;;;;;16.09;100;95459.06;;;;
2022/08/21 00:03:47;;;;;;;4.55;3.55;;;;;;;16.09;100;95459.06;;;;
2022/08/21 00:04:48;;;;;;;4.55;3.55;;;;;;;16.09;100;95459.06;;;;
2022/08/21 00:05:49;;;;;;;4.55;3.55;;;;;;;16.09;100;95459.06;;;;
2022/08/21 00:06:50;;;;;;;3.9;3.6;;;;;;;15.87;100;95457.1;;;;
2022/08/21 00:07:51;;;;;;;3.9;3.6;;;;;;;15.87;100;95457.1;;;;
2022/08/21 00:08:52;;;;;;;3.9;3.6;;;;;;;15.87;100;95457.1;;;;
2022/08/21 00:09:52;;;;;;;3.9;3.6;;;;;;;15.87;100;95457.1;;;;
2022/08/21 00:10:54;;;;;;;3.9;3.6;;;;;;;15.87;100;95457.1;;;;
2022/08/21 00:11:54;;;;;;;3.9;3.6;;;;;;;15.87;100;95457.1;;;;
2022/08/21 00:12:55;;;;;;;3.9;3.6;;;;;;;15.87;100;95457.1;;;;
2022/08/21 00:13:56;;;;;;;3.9;3.6;;;;;;;15.87;100;95457.1;;;;
2022/08/21 00:14:56;;;;;;;3.9;3.6;;;;;;;15.87;100;95457.1;;;;
2022/08/21 00:15:57;;;;;;;3.9;3.6;;;;;;;15.87;100;95457.1;;;;
2022/08/21 00:16:58;;;;;;;5.6;3.5;;;;;;;15.76;100;95465.56;;;;
2022/08/21 00:17:58;;;;;;;5.6;3.5;;;;;;;15.76;100;95465.56;;;;
2022/08/21 00:18:59;;;;;;;5.6;3.5;;;;;;;15.76;100;95465.56;;;;
2022/08/21 00:19:59;;;;;;;5.6;3.5;;;;;;;15.76;100;95465.56;;;;
2022/08/21 00:21:00;;;;;;;5.6;3.5;;;;;;;15.76;100;95465.56;;;;
2022/08/21 00:22:01;;;;;;;5.6;3.5;;;;;;;15.76;100;95465.56;;;;
2022/08/21 00:23:01;;;;;;;5.6;3.5;;;;;;;15.76;100;95465.56;;;;
2022/08/21 00:24:03;;;;;;;5.6;3.5;;;;;;;15.76;100;95465.56;;;;
2022/08/21 00:25:05;;;;;;;5.6;3.5;;;;;;;15.76;100;95465.56;;;;
2022/08/21 00:26:08;;;;;;;5.6;3.5;;;;;;;15.76;100;95465.56;;;;
2022/08/21 00:27:09;;;;;;;5.6;3.5;;;;;;;15.76;100;95465.56;;;;
2022/08/21 00:28:09;;;;;;;4.1;3.7;;;;;;;15.6;100;95454.75;;;;
2022/08/21 00:29:11;;;;;;;4.1;3.7;;;;;;;15.6;100;95454.75;;;;
2022/08/21 00:30:12;;;;;;;4.1;3.7;;;;;;;15.6;100;95454.75;;;;
2022/08/21 00:31:15;;;;;;;4.1;3.7;;;;;;;15.6;100;95454.75;;;;
2022/08/21 00:32:16;;;;;;;4.1;3.7;;;;;;;15.6;100;95454.75;;;;
2022/08/21 00:33:20;;;;;;;4.1;3.7;;;;;;;15.6;100;95454.75;;;;
2022/08/21 00:34:21;;;;;;;4.1;3.7;;;;;;;15.6;100;95454.75;;;;
2022/08/21 00:35:21;;;;;;;4.1;3.7;;;;;;;15.6;100;95454.75;;;;
2022/08/21 00:36:26;;;;;;;4.1;3.7;;;;;;;15.6;100;95454.75;;;;
2022/08/21 00:37:27;;;;;;;4.1;3.7;;;;;;;15.6;100;95454.75;;;;
2022/08/21 00:38:28;;;;;;;4;3.6;;;;;;;15.53;100;95445.67;;;;
2022/08/21 00:39:28;;;;;;;4;3.6;;;;;;;15.53;100;95445.67;;;;
2022/08/21 00:40:29;;;;;;;4;3.6;;;;;;;15.53;100;95445.67;;;;
2022/08/21 00:41:34;;;;;;;4;3.6;;;;;;;15.53;100;95445.67;;;;
2022/08/21 00:42:36;;;;;;;4;3.6;;;;;;;15.53;100;95445.67;;;;
2022/08/21 00:43:37;;;;;;;4;3.6;;;;;;;15.53;100;95445.67;;;;
2022/08/21 00:44:39;;;;;;;4;3.6;;;;;;;15.53;100;95445.67;;;;
2022/08/21 00:45:39;;;;;;;4;3.6;;;;;;;15.53;100;95445.67;;;;
2022/08/21 00:46:40;;;;;;;4;3.6;;;;;;;15.53;100;95445.67;;;;
2022/08/21 00:47:42;;;;;;;4;3.6;;;;;;;15.53;100;95445.67;;;;
2022/08/21 00:48:42;;;;;;;3.55;3.25;;;;;;;15.41;100;95458.65;;;;
2022/08/21 00:49:43;;;;;;;3.55;3.25;;;;;;;15.41;100;95458.65;;;;
2022/08/21 00:50:44;;;;;;;3.55;3.25;;;;;;;15.41;100;95458.65;;;;
2022/08/21 00:51:51;;;;;;;3.55;3.25;;;;;;;15.41;100;95458.65;;;;
2022/08/21 00:52:59;;;;;;;3.55;3.25;;;;;;;15.41;100;95458.65;;;;
2022/08/21 00:54:01;;;;;;;3.55;3.25;;;;;;;15.41;100;95458.65;;;;
2022/08/21 00:55:06;;;;;;;3.55;3.25;;;;;;;15.41;100;95458.65;;;;
2022/08/21 00:56:09;;;;;;;3.55;3.25;;;;;;;15.41;100;95458.65;;;;
2022/08/21 00:57:12;;;;;;;3.55;3.25;;;;;;;15.41;100;95458.65;;;;
2022/08/21 00:58:17;;;;;;;3.55;3.25;;;;;;;15.41;100;95458.65;;;;
2022/08/21 00:59:18;;;;;;;3.9;3.5;;;;;;;15.35;100;95452.11;;;;
2022/08/21 01:00:21;;;;;;;3.9;3.5;;;;;;;15.35;100;95452.11;;;;
2022/08/21 01:01:25;;;;;;;3.9;3.5;;;;;;;15.35;100;95452.11;;;;
2022/08/21 01:02:26;;;;;;;3.9;3.5;;;;;;;15.35;100;95452.11;;;;
2022/08/21 01:03:27;;;;;;;3.9;3.5;;;;;;;15.35;100;95452.11;;;;
2022/08/21 01:04:27;;;;;;;3.9;3.5;;;;;;;15.35;100;95452.11;;;;
2022/08/21 01:05:28;;;;;;;3.9;3.5;;;;;;;15.35;100;95452.11;;;;
2022/08/21 01:06:28;;;;;;;3.9;3.5;;;;;;;15.35;100;95452.11;;;;
2022/08/21 01:07:30;;;;;;;3.9;3.5;;;;;;;15.35;100;95452.11;;;;
2022/08/21 01:08:30;;;;;;;3.9;3.5;;;;;;;15.35;100;95452.11;;;;
2022/08/21 01:09:32;;;;;;;3.9;3.5;;;;;;;15.35;100;95452.11;;;;
2022/08/21 01:10:33;;;;;;;4.25;3.45;;;;;;;15.22;100;95445.17;;;;
2022/08/21 01:11:34;;;;;;;4.25;3.45;;;;;;;15.22;100;95445.17;;;;
2022/08/21 01:12:35;;;;;;;4.25;3.45;;;;;;;15.22;100;95445.17;;;;
2022/08/21 01:13:35;;;;;;;4.25;3.45;;;;;;;15.22;100;95445.17;;;;
2022/08/21 01:14:38;;;;;;;4.25;3.45;;;;;;;15.22;100;95445.17;;;;
2022/08/21 01:15:40;;;;;;;4.25;3.45;;;;;;;15.22;100;95445.17;;;;
2022/08/21 01:16:44;;;;;;;4.25;3.45;;;;;;;15.22;100;95445.17;;;;
2022/08/21 01:17:50;;;;;;;4.25;3.45;;;;;;;15.22;100;95445.17;;;;
2022/08/21 01:18:51;;;;;;;4.25;3.45;;;;;;;15.22;100;95445.17;;;;
2022/08/21 01:19:51;;;;;;;4.25;3.45;;;;;;;15.22;100;95445.17;;;;
2022/08/21 01:20:56;;;;;;;3.55;3.25;;;;;;;15.15;100;95438.78;;;;
2022/08/21 01:22:08;;;;;;;3.55;3.25;;;;;;;15.15;100;95438.78;;;;
2022/08/21 01:23:08;;;;;;;3.55;3.25;;;;;;;15.15;100;95438.78;;;;
2022/08/21 01:24:09;;;;;;;3.55;3.25;;;;;;;15.15;100;95438.78;;;;
2022/08/21 01:25:11;;;;;;;3.55;3.25;;;;;;;15.15;100;95438.78;;;;
2022/08/21 01:26:15;;;;;;;3.55;3.25;;;;;;;15.15;100;95438.78;;;;
2022/08/21 01:27:19;;;;;;;3.55;3.25;;;;;;;15.15;100;95438.78;;;;
2022/08/21 01:28:19;;;;;;;3.55;3.25;;;;;;;15.15;100;95438.78;;;;
2022/08/21 01:29:22;;;;;;;3.55;3.25;;;;;;;15.15;100;95438.78;;;;
2022/08/21 01:30:31;;;;;;;3.55;3.25;;;;;;;15.15;100;95438.78;;;;
2022/08/21 01:31:34;;;;;;;3.8;3.5;;;;;;;15.01;100;95437.82;;;;
2022/08/21 01:32:35;;;;;;;3.8;3.5;;;;;;;15.01;100;95437.82;;;;
2022/08/21 01:33:36;;;;;;;3.8;3.5;;;;;;;15.01;100;95437.82;;;;
2022/08/21 01:34:37;;;;;;;3.8;3.5;;;;;;;15.01;100;95437.82;;;;
2022/08/21 01:35:41;;;;;;;3.8;3.5;;;;;;;15.01;100;95437.82;;;;
2022/08/21 01:36:41;;;;;;;3.8;3.5;;;;;;;15.01;100;95437.82;;;;
2022/08/21 01:37:42;;;;;;;3.8;3.5;;;;;;;15.01;100;95437.82;;;;
2022/08/21 01:38:43;;;;;;;3.8;3.5;;;;;;;15.01;100;95437.82;;;;
2022/08/21 01:39:44;;;;;;;3.8;3.5;;;;;;;15.01;100;95437.82;;;;
2022/08/21 01:40:45;;;;;;;3.8;3.5;;;;;;;15.01;100;95437.82;;;;
2022/08/21 01:41:46;;;;;;;3.8;3.5;;;;;;;15.01;100;95437.82;;;;
2022/08/21 01:42:46;;;;;;;4.15;3.8;;;;;;;14.94;100;95442.89;;;;
2022/08/21 01:43:47;;;;;;;4.15;3.8;;;;;;;14.94;100;95442.89;;;;
2022/08/21 01:44:48;;;;;;;4.15;3.8;;;;;;;14.94;100;95442.89;;;;
2022/08/21 01:45:49;;;;;;;4.15;3.8;;;;;;;14.94;100;95442.89;;;;
2022/08/21 01:46:49;;;;;;;4.15;3.8;;;;;;;14.94;100;95442.89;;;;
2022/08/21 01:47:51;;;;;;;4.15;3.8;;;;;;;14.94;100;95442.89;;;;
2022/08/21 01:48:52;;;;;;;4.15;3.8;;;;;;;14.94;100;95442.89;;;;
2022/08/21 01:49:52;;;;;;;4.15;3.8;;;;;;;14.94;100;95442.89;;;;
2022/08/21 01:50:53;;;;;;;4.15;3.8;;;;;;;14.94;100;95442.89;;;;
2022/08/21 01:51:53;;;;;;;4.15;3.8;;;;;;;14.94;100;95442.89;;;;
2022/08/21 01:52:54;;;;;;;3.6;3.3;;;;;;;14.82;100;95443.02;;;;
2022/08/21 01:53:55;;;;;;;3.6;3.3;;;;;;;14.82;100;95443.02;;;;
2022/08/21 01:54:55;;;;;;;3.6;3.3;;;;;;;14.82;100;95443.02;;;;
2022/08/21 01:55:55;;;;;;;3.6;3.3;;;;;;;14.82;100;95443.02;;;;
2022/08/21 01:56:56;;;;;;;3.6;3.3;;;;;;;14.82;100;95443.02;;;;
2022/08/21 01:57:58;;;;;;;3.6;3.3;;;;;;;14.82;100;95443.02;;;;
2022/08/21 01:58:59;;;;;;;3.6;3.3;;;;;;;14.82;100;95443.02;;;;
2022/08/21 01:59:59;;;;;;;3.6;3.3;;;;;;;14.82;100;95443.02;;;;
2022/08/21 02:01:01;;;;;;;3.6;3.3;;;;;;;14.82;100;95443.02;;;;
2022/08/21 02:02:03;;;;;;;3.6;3.3;;;;;;;14.82;100;95443.02;;;;
2022/08/21 02:03:04;;;;;;;3.6;3.3;;;;;;;14.82;100;95443.02;;;;
2022/08/21 02:04:05;;;;;;;5.05;3.7;;;;;;;14.75;100;95432.22;;;;
2022/08/21 02:05:06;;;;;;;5.05;3.7;;;;;;;14.75;100;95432.22;;;;
2022/08/21 02:06:09;;;;;;;5.05;3.7;;;;;;;14.75;100;95432.22;;;;
2022/08/21 02:07:14;;;;;;;5.05;3.7;;;;;;;14.75;100;95432.22;;;;
2022/08/21 02:08:15;;;;;;;5.05;3.7;;;;;;;14.75;100;95432.22;;;;
2022/08/21 02:09:15;;;;;;;5.05;3.7;;;;;;;14.75;100;95432.22;;;;
2022/08/21 02:10:16;;;;;;;5.05;3.7;;;;;;;14.75;100;95432.22;;;;
2022/08/21 02:11:20;;;;;;;5.05;3.7;;;;;;;14.75;100;95432.22;;;;
2022/08/21 02:12:21;;;;;;;5.05;3.7;;;;;;;14.75;100;95432.22;;;;
2022/08/21 02:13:22;;;;;;;5.05;3.7;;;;;;;14.75;100;95432.22;;;;
2022/08/21 02:14:22;;;;;;;6.25;3.75;;;;;;;14.63;100;95418.52;;;;
2022/08/21 02:15:23;;;;;;;6.25;3.75;;;;;;;14.63;100;95418.52;;;;
2022/08/21 02:16:23;;;;;;;6.25;3.75;;;;;;;14.63;100;95418.52;;;;
2022/08/21 02:17:24;;;;;;;6.25;3.75;;;;;;;14.63;100;95418.52;;;;
2022/08/21 02:18:25;;;;;;;6.25;3.75;;;;;;;14.63;100;95418.52;;;;
2022/08/21 02:19:25;;;;;;;6.25;3.75;;;;;;;14.63;100;95418.52;;;;
2022/08/21 02:20:26;;;;;;;6.25;3.75;;;;;;;14.63;100;95418.52;;;;
2022/08/21 02:21:29;;;;;;;6.25;3.75;;;;;;;14.63;100;95418.52;;;;
2022/08/21 02:22:30;;;;;;;6.25;3.75;;;;;;;14.63;100;95418.52;;;;
2022/08/21 02:23:30;;;;;;;6.25;3.75;;;;;;;14.63;100;95418.52;;;;
2022/08/21 02:24:31;;;;;;;4.3;3.75;;;;;;;14.58;100;95413.49;;;;
2022/08/21 02:25:32;;;;;;;4.3;3.75;;;;;;;14.58;100;95413.49;;;;
2022/08/21 02:26:33;;;;;;;4.3;3.75;;;;;;;14.58;100;95413.49;;;;
2022/08/21 02:27:34;;;;;;;4.3;3.75;;;;;;;14.58;100;95413.49;;;;
2022/08/21 02:28:39;;;;;;;4.3;3.75;;;;;;;14.58;100;95413.49;;;;
2022/08/21 02:29:41;;;;;;;4.3;3.75;;;;;;;14.58;100;95413.49;;;;
2022/08/21 02:30:42;;;;;;;4.3;3.75;;;;;;;14.58;100;95413.49;;;;
2022/08/21 02:31:45;;;;;;;4.3;3.75;;;;;;;14.58;100;95413.49;;;;
2022/08/21 02:32:45;;;;;;;4.3;3.75;;;;;;;14.58;100;95413.49;;;;
2022/08/21 02:33:46;;;;;;;4.3;3.75;;;;;;;14.58;100;95413.49;;;;
2022/08/21 02:34:47;;;;;;;4.3;3.75;;;;;;;14.58;100;95413.49;;;;
2022/08/21 02:35:47;;;;;;;4.35;3.95;;;;;;;14.51;100;95412.41;;;;
2022/08/21 02:36:49;;;;;;;4.35;3.95;;;;;;;14.51;100;95412.41;;;;
2022/08/21 02:37:50;;;;;;;4.35;3.95;;;;;;;14.51;100;95412.41;;;;
2022/08/21 02:38:53;;;;;;;4.35;3.95;;;;;;;14.51;100;95412.41;;;;
2022/08/21 02:39:53;;;;;;;4.35;3.95;;;;;;;14.51;100;95412.41;;;;
2022/08/21 02:40:54;;;;;;;4.35;3.95;;;;;;;14.51;100;95412.41;;;;
2022/08/21 02:41:55;;;;;;;4.35;3.95;;;;;;;14.51;100;95412.41;;;;
2022/08/21 02:42:56;;;;;;;4.35;3.95;;;;;;;14.51;100;95412.41;;;;
2022/08/21 02:43:57;;;;;;;4.35;3.95;;;;;;;14.51;100;95412.41;;;;
2022/08/21 02:44:57;;;;;;;4.35;3.95;;;;;;;14.51;100;95412.41;;;;
2022/08/21 02:45:58;;;;;;;4.450001;4.1;;;;;;;14.47;100;95410.33;;;;
2022/08/21 02:46:59;;;;;;;4.450001;4.1;;;;;;;14.47;100;95410.33;;;;
2022/08/21 02:47:59;;;;;;;4.450001;4.1;;;;;;;14.47;100;95410.33;;;;
2022/08/21 02:49:02;;;;;;;4.450001;4.1;;;;;;;14.47;100;95410.33;;;;
2022/08/21 02:50:02;;;;;;;4.450001;4.1;;;;;;;14.47;100;95410.33;;;;
2022/08/21 02:51:06;;;;;;;4.450001;4.1;;;;;;;14.47;100;95410.33;;;;
2022/08/21 02:52:11;;;;;;;4.450001;4.1;;;;;;;14.47;100;95410.33;;;;
2022/08/21 02:53:13;;;;;;;4.450001;4.1;;;;;;;14.47;100;95410.33;;;;
2022/08/21 02:54:15;;;;;;;4.450001;4.1;;;;;;;14.47;100;95410.33;;;;
2022/08/21 02:55:16;;;;;;;4.450001;4.1;;;;;;;14.47;100;95410.33;;;;
2022/08/21 02:56:17;;;;;;;4.450001;4.1;;;;;;;14.47;100;95410.33;;;;
2022/08/21 02:57:20;;;;;;;4.450001;4.1;;;;;;;14.47;100;95410.33;;;;
2022/08/21 02:58:20;;;;;;;4.450001;4.1;;;;;;;14.47;100;95410.33;;;;
2022/08/21 02:59:24;;;;;;;4.450001;4.1;;;;;;;14.47;100;95410.33;;;;
2022/08/21 03:00:25;;;;;;;4.450001;4.1;;;;;;;14.47;100;95410.33;;;;
2022/08/21 03:01:27;;;;;;;4.450001;4.1;;;;;;;14.47;100;95410.33;;;;
2022/08/21 03:02:28;;;;;;;4.450001;4.1;;;;;;;14.47;100;95410.33;;;;
2022/08/21 03:03:29;;;;;;;4.450001;4.1;;;;;;;14.47;100;95410.33;;;;
2022/08/21 03:04:29;;;;;;;4.450001;4.1;;;;;;;14.47;100;95410.33;;;;
2022/08/21 03:05:31;;;;;;;4.450001;4.1;;;;;;;14.47;100;95410.33;;;;
2022/08/21 03:06:33;;;;;;;4.450001;4.1;;;;;;;14.47;100;95410.33;;;;
2022/08/21 03:07:34;;;;;;;5.999999;4.050001;;;;;;;14.32;100;95406.81;;;;
2022/08/21 03:08:34;;;;;;;5.999999;4.050001;;;;;;;14.32;100;95406.81;;;;
2022/08/21 03:09:37;;;;;;;5.999999;4.050001;;;;;;;14.32;100;95406.81;;;;
2022/08/21 03:10:37;;;;;;;5.999999;4.050001;;;;;;;14.32;100;95406.81;;;;
2022/08/21 03:11:40;;;;;;;5.999999;4.050001;;;;;;;14.32;100;95406.81;;;;
2022/08/21 03:12:41;;;;;;;5.999999;4.050001;;;;;;;14.32;100;95406.81;;;;
2022/08/21 03:13:42;;;;;;;5.999999;4.050001;;;;;;;14.32;100;95406.81;;;;
2022/08/21 03:14:43;;;;;;;5.999999;4.050001;;;;;;;14.32;100;95406.81;;;;
2022/08/21 03:15:43;;;;;;;5.999999;4.050001;;;;;;;14.32;100;95406.81;;;;
2022/08/21 03:16:44;;;;;;;5.999999;4.050001;;;;;;;14.32;100;95406.81;;;;
2022/08/21 03:17:45;;;;;;;5.999999;4.050001;;;;;;;14.32;100;95406.81;;;;
2022/08/21 03:18:47;;;;;;;4.450001;4.050001;;;;;;;14.14;100;95418.84;;;;
2022/08/21 03:19:47;;;;;;;4.450001;4.050001;;;;;;;14.14;100;95418.84;;;;
2022/08/21 03:20:47;;;;;;;4.450001;4.050001;;;;;;;14.14;100;95418.84;;;;
2022/08/21 03:21:48;;;;;;;4.450001;4.050001;;;;;;;14.14;100;95418.84;;;;
2022/08/21 03:22:49;;;;;;;4.450001;4.050001;;;;;;;14.14;100;95418.84;;;;
2022/08/21 03:23:50;;;;;;;4.450001;4.050001;;;;;;;14.14;100;95418.84;;;;
2022/08/21 03:24:51;;;;;;;4.450001;4.050001;;;;;;;14.14;100;95418.84;;;;
2022/08/21 03:25:52;;;;;;;4.450001;4.050001;;;;;;;14.14;100;95418.84;;;;
2022/08/21 03:26:52;;;;;;;4.450001;4.050001;;;;;;;14.14;100;95418.84;;;;
2022/08/21 03:27:53;;;;;;;4.450001;4.050001;;;;;;;14.14;100;95418.84;;;;
2022/08/21 03:28:53;;;;;;;4.75;4.349999;;;;;;;14.02;100;95418.02;;;;
2022/08/21 03:29:54;;;;;;;4.75;4.349999;;;;;;;14.02;100;95418.02;;;;
2022/08/21 03:30:55;;;;;;;4.75;4.349999;;;;;;;14.02;100;95418.02;;;;
2022/08/21 03:31:55;;;;;;;4.75;4.349999;;;;;;;14.02;100;95418.02;;;;
2022/08/21 03:32:56;;;;;;;4.75;4.349999;;;;;;;14.02;100;95418.02;;;;
2022/08/21 03:33:57;;;;;;;4.75;4.349999;;;;;;;14.02;100;95418.02;;;;
2022/08/21 03:34:59;;;;;;;4.75;4.349999;;;;;;;14.02;100;95418.02;;;;
2022/08/21 03:36:00;;;;;;;4.75;4.349999;;;;;;;14.02;100;95418.02;;;;
2022/08/21 03:37:04;;;;;;;4.75;4.349999;;;;;;;14.02;100;95418.02;;;;
2022/08/21 03:38:07;;;;;;;4.75;4.349999;;;;;;;14.02;100;95418.02;;;;
2022/08/21 03:39:07;;;;;;;4.75;4.349999;;;;;;;14.02;100;95418.02;;;;
2022/08/21 03:40:08;;;;;;;5.799999;5.2;;;;;;;13.89;100;95409.33;;;;
2022/08/21 03:41:15;;;;;;;5.799999;5.2;;;;;;;13.89;100;95409.33;;;;
2022/08/21 03:42:16;;;;;;;5.799999;5.2;;;;;;;13.89;100;95409.33;;;;
2022/08/21 03:43:16;;;;;;;5.799999;5.2;;;;;;;13.89;100;95409.33;;;;
2022/08/21 03:44:17;;;;;;;5.799999;5.2;;;;;;;13.89;100;95409.33;;;;
2022/08/21 03:45:17;;;;;;;5.799999;5.2;;;;;;;13.89;100;95409.33;;;;
2022/08/21 03:46:19;;;;;;;5.799999;5.2;;;;;;;13.89;100;95409.33;;;;
2022/08/21 03:47:21;;;;;;;5.799999;5.2;;;;;;;13.89;100;95409.33;;;;
2022/08/21 03:48:22;;;;;;;5.799999;5.2;;;;;;;13.89;100;95409.33;;;;
2022/08/21 03:49:23;;;;;;;5.799999;5.2;;;;;;;13.89;100;95409.33;;;;
2022/08/21 03:50:23;;;;;;;5.4;4.55;;;;;;;13.81;100;95411;;;;
2022/08/21 03:51:26;;;;;;;5.4;4.55;;;;;;;13.81;100;95411;;;;
2022/08/21 03:52:27;;;;;;;5.4;4.55;;;;;;;13.81;100;95411;;;;
2022/08/21 03:53:27;;;;;;;5.4;4.55;;;;;;;13.81;100;95411;;;;
2022/08/21 03:54:28;;;;;;;5.4;4.55;;;;;;;13.81;100;95411;;;;
2022/08/21 03:55:29;;;;;;;5.4;4.55;;;;;;;13.81;100;95411;;;;
2022/08/21 03:56:29;;;;;;;5.4;4.55;;;;;;;13.81;100;95411;;;;
2022/08/21 03:57:30;;;;;;;5.4;4.55;;;;;;;13.81;100;95411;;;;
2022/08/21 03:58:31;;;;;;;5.4;4.55;;;;;;;13.81;100;95411;;;;
2022/08/21 03:59:31;;;;;;;5.4;4.55;;;;;;;13.81;100;95411;;;;
2022/08/21 04:00:32;;;;;;;5.4;4.55;;;;;;;13.81;100;95411;;;;
2022/08/21 04:01:32;;;;;;;5.25;4.75;;;;;;;13.69;100;95421.31;;;;
2022/08/21 04:02:33;;;;;;;5.25;4.75;;;;;;;13.69;100;95421.31;;;;
2022/08/21 04:03:34;;;;;;;5.25;4.75;;;;;;;13.69;100;95421.31;;;;
2022/08/21 04:04:36;;;;;;;5.25;4.75;;;;;;;13.69;100;95421.31;;;;
2022/08/21 04:05:37;;;;;;;5.25;4.75;;;;;;;13.69;100;95421.31;;;;
2022/08/21 04:06:37;;;;;;;5.25;4.75;;;;;;;13.69;100;95421.31;;;;
2022/08/21 04:07:38;;;;;;;5.25;4.75;;;;;;;13.69;100;95421.31;;;;
2022/08/21 04:08:40;;;;;;;5.25;4.75;;;;;;;13.69;100;95421.31;;;;
2022/08/21 04:09:40;;;;;;;5.25;4.75;;;;;;;13.69;100;95421.31;;;;
2022/08/21 04:10:41;;;;;;;5.25;4.75;;;;;;;13.69;100;95421.31;;;;
2022/08/21 04:11:43;;;;;;;5.650001;5.000001;;;;;;;13.64;100;95424.25;;;;
2022/08/21 04:12:44;;;;;;;5.650001;5.000001;;;;;;;13.64;100;95424.25;;;;
2022/08/21 04:13:44;;;;;;;5.650001;5.000001;;;;;;;13.64;100;95424.25;;;;
2022/08/21 04:14:46;;;;;;;5.650001;5.000001;;;;;;;13.64;100;95424.25;;;;
2022/08/21 04:15:46;;;;;;;5.650001;5.000001;;;;;;;13.64;100;95424.25;;;;
2022/08/21 04:16:47;;;;;;;5.650001;5.000001;;;;;;;13.64;100;95424.25;;;;
2022/08/21 04:17:48;;;;;;;5.650001;5.000001;;;;;;;13.64;100;95424.25;;;;
2022/08/21 04:18:48;;;;;;;5.650001;5.000001;;;;;;;13.64;100;95424.25;;;;
2022/08/21 04:19:49;;;;;;;5.650001;5.000001;;;;;;;13.64;100;95424.25;;;;
2022/08/21 04:20:49;;;;;;;5.650001;5.000001;;;;;;;13.64;100;95424.25;;;;
2022/08/21 04:21:53;;;;;;;5.5;5;;;;;;;13.53;100;95424.11;;;;
2022/08/21 04:22:54;;;;;;;5.5;5;;;;;;;13.53;100;95424.11;;;;
2022/08/21 04:23:55;;;;;;;5.5;5;;;;;;;13.53;100;95424.11;;;;
2022/08/21 04:24:56;;;;;;;5.5;5;;;;;;;13.53;100;95424.11;;;;
2022/08/21 04:25:56;;;;;;;5.5;5;;;;;;;13.53;100;95424.11;;;;
2022/08/21 04:26:57;;;;;;;5.5;5;;;;;;;13.53;100;95424.11;;;;
2022/08/21 04:27:58;;;;;;;5.5;5;;;;;;;13.53;100;95424.11;;;;
2022/08/21 04:28:58;;;;;;;5.5;5;;;;;;;13.53;100;95424.11;;;;
2022/08/21 04:29:59;;;;;;;5.5;5;;;;;;;13.53;100;95424.11;;;;
2022/08/21 04:31:00;;;;;;;5.5;5;;;;;;;13.53;100;95424.11;;;;
2022/08/21 04:32:00;;;;;;;5.5;5;;;;;;;13.53;100;95424.11;;;;
2022/08/21 04:33:02;;;;;;;6.099999;5.5;;;;;;;13.52;100;95439.33;;;;
2022/08/21 04:34:04;;;;;;;6.099999;5.5;;;;;;;13.52;100;95439.33;;;;
2022/08/21 04:35:05;;;;;;;6.099999;5.5;;;;;;;13.52;100;95439.33;;;;
2022/08/21 04:36:09;;;;;;;6.099999;5.5;;;;;;;13.52;100;95439.33;;;;
2022/08/21 04:37:10;;;;;;;6.099999;5.5;;;;;;;13.52;100;95439.33;;;;
2022/08/21 04:38:11;;;;;;;6.099999;5.5;;;;;;;13.52;100;95439.33;;;;
2022/08/21 04:39:11;;;;;;;6.099999;5.5;;;;;;;13.52;100;95439.33;;;;
2022/08/21 04:40:12;;;;;;;6.099999;5.5;;;;;;;13.52;100;95439.33;;;;
2022/08/21 04:41:15;;;;;;;6.099999;5.5;;;;;;;13.52;100;95439.33;;;;
2022/08/21 04:42:17;;;;;;;6.099999;5.5;;;;;;;13.52;100;95439.33;;;;
2022/08/21 04:43:18;;;;;;;5.450001;4.95;;;;;;;13.5;100;95444.59;;;;
2022/08/21 04:44:19;;;;;;;5.450001;4.95;;;;;;;13.5;100;95444.59;;;;
2022/08/21 04:45:20;;;;;;;5.450001;4.95;;;;;;;13.5;100;95444.59;;;;
2022/08/21 04:46:23;;;;;;;5.450001;4.95;;;;;;;13.5;100;95444.59;;;;
2022/08/21 04:47:24;;;;;;;5.450001;4.95;;;;;;;13.5;100;95444.59;;;;
2022/08/21 04:48:25;;;;;;;5.450001;4.95;;;;;;;13.5;100;95444.59;;;;
2022/08/21 04:49:26;;;;;;;5.450001;4.95;;;;;;;13.5;100;95444.59;;;;
2022/08/21 04:50:26;;;;;;;5.450001;4.95;;;;;;;13.5;100;95444.59;;;;
2022/08/21 04:51:31;;;;;;;5.450001;4.95;;;;;;;13.5;100;95444.59;;;;
2022/08/21 04:52:37;;;;;;;5.450001;4.95;;;;;;;13.5;100;95444.59;;;;
2022/08/21 04:53:38;;;;;;;5.450001;4.95;;;;;;;13.5;100;95444.59;;;;
2022/08/21 04:54:42;;;;;;;5.55;5.05;;;;;;;13.61;100;95456.17;;;;
2022/08/21 04:55:44;;;;;;;5.55;5.05;;;;;;;13.61;100;95456.17;;;;
2022/08/21 04:56:45;;;;;;;5.55;5.05;;;;;;;13.61;100;95456.17;;;;
2022/08/21 04:57:53;;;;;;;5.55;5.05;;;;;;;13.61;100;95456.17;;;;
2022/08/21 04:58:55;;;;;;;5.55;5.05;;;;;;;13.61;100;95456.17;;;;
2022/08/21 04:59:59;;;;;;;5.55;5.05;;;;;;;13.61;100;95456.17;;;;
2022/08/21 05:01:00;;;;;;;5.55;5.05;;;;;;;13.61;100;95456.17;;;;
2022/08/21 05:02:03;;;;;;;5.55;5.05;;;;;;;13.61;100;95456.17;;;;
2022/08/21 05:03:05;;;;;;;5.55;5.05;;;;;;;13.61;100;95456.17;;;;
2022/08/21 05:04:09;;;;;;;5.55;5.05;;;;;;;13.61;100;95456.17;;;;
2022/08/21 05:05:12;;;;;;;6.5;5.150001;;;;;;;13.64;100;95455.72;;;;
2022/08/21 05:06:13;;;;;;;6.5;5.150001;;;;;;;13.64;100;95455.72;;;;
2022/08/21 05:07:15;;;;;;;6.5;5.150001;;;;;;;13.64;100;95455.72;;;;
2022/08/21 05:08:23;;;;;;;6.5;5.150001;;;;;;;13.64;100;95455.72;;;;
2022/08/21 05:09:26;;;;;;;6.5;5.150001;;;;;;;13.64;100;95455.72;;;;
2022/08/21 05:10:27;;;;;;;6.5;5.150001;;;;;;;13.64;100;95455.72;;;;
2022/08/21 05:11:28;;;;;;;6.5;5.150001;;;;;;;13.64;100;95455.72;;;;
2022/08/21 05:12:29;;;;;;;6.5;5.150001;;;;;;;13.64;100;95455.72;;;;
2022/08/21 05:13:31;;;;;;;6.5;5.150001;;;;;;;13.64;100;95455.72;;;;
2022/08/21 05:14:32;;;;;;;6.5;5.150001;;;;;;;13.64;100;95455.72;;;;
2022/08/21 05:15:33;;;;;;;5.500001;5.000001;;;;;;;13.78;100;95442.93;;;;
2022/08/21 05:16:35;;;;;;;5.500001;5.000001;;;;;;;13.78;100;95442.93;;;;
2022/08/21 05:17:35;;;;;;;5.500001;5.000001;;;;;;;13.78;100;95442.93;;;;
2022/08/21 05:18:36;;;;;;;5.500001;5.000001;;;;;;;13.78;100;95442.93;;;;
2022/08/21 05:19:36;;;;;;;5.500001;5.000001;;;;;;;13.78;100;95442.93;;;;
2022/08/21 05:20:37;;;;;;;5.500001;5.000001;;;;;;;13.78;100;95442.93;;;;
2022/08/21 05:21:38;;;;;;;5.500001;5.000001;;;;;;;13.78;100;95442.93;;;;
2022/08/21 05:22:41;;;;;;;5.500001;5.000001;;;;;;;13.78;100;95442.93;;;;
2022/08/21 05:23:42;;;;;;;5.500001;5.000001;;;;;;;13.78;100;95442.93;;;;
2022/08/21 05:24:43;;;;;;;5.500001;5.000001;;;;;;;13.78;100;95442.93;;;;
2022/08/21 05:25:43;;;;;;;5.500001;5.000001;;;;;;;13.78;100;95442.93;;;;
2022/08/21 05:26:44;;;;;;;6.7;6.1;;;;;;;13.88;100;95455.16;;;;
2022/08/21 05:27:45;;;;;;;6.7;6.1;;;;;;;13.88;100;95455.16;;;;
2022/08/21 05:28:45;;;;;;;6.7;6.1;;;;;;;13.88;100;95455.16;;;;
2022/08/21 05:29:46;;;;;;;6.7;6.1;;;;;;;13.88;100;95455.16;;;;
2022/08/21 05:30:46;;;;;;;6.7;6.1;;;;;;;13.88;100;95455.16;;;;
2022/08/21 05:31:47;;;;;;;6.7;6.1;;;;;;;13.88;100;95455.16;;;;
2022/08/21 05:32:48;;;;;;;6.7;6.1;;;;;;;13.88;100;95455.16;;;;
2022/08/21 05:33:48;;;;;;;6.7;6.1;;;;;;;13.88;100;95455.16;;;;
2022/08/21 05:34:49;;;;;;;6.7;6.1;;;;;;;13.88;100;95455.16;;;;
2022/08/21 05:35:50;;;;;;;6.7;6.1;;;;;;;13.88;100;95455.16;;;;
2022/08/21 05:36:52;;;;;;;6.749999;6.000001;;;;;;;14.13;100;95458.54;;;;
2022/08/21 05:37:53;;;;;;;6.749999;6.000001;;;;;;;14.13;100;95458.54;;;;
2022/08/21 05:38:54;;;;;;;6.749999;6.000001;;;;;;;14.13;100;95458.54;;;;
2022/08/21 05:39:54;;;;;;;6.749999;6.000001;;;;;;;14.13;100;95458.54;;;;
2022/08/21 05:40:55;;;;;;;6.749999;6.000001;;;;;;;14.13;100;95458.54;;;;
2022/08/21 05:41:55;;;;;;;6.749999;6.000001;;;;;;;14.13;100;95458.54;;;;
2022/08/21 05:42:56;;;;;;;6.749999;6.000001;;;;;;;14.13;100;95458.54;;;;
2022/08/21 05:43:57;;;;;;;6.749999;6.000001;;;;;;;14.13;100;95458.54;;;;
2022/08/21 05:44:57;;;;;;;6.749999;6.000001;;;;;;;14.13;100;95458.54;;;;
2022/08/21 05:45:58;;;;;;;6.749999;6.000001;;;;;;;14.13;100;95458.54;;;;
2022/08/21 05:46:58;;;;;;;6.749999;6.000001;;;;;;;14.13;100;95458.54;;;;
2022/08/21 05:48:03;;;;;;;7.550002;6.799999;;;;;;;14.39;100;95454.97;;;;
2022/08/21 05:49:06;;;;;;;7.550002;6.799999;;;;;;;14.39;100;95454.97;;;;
2022/08/21 05:50:07;;;;;;;7.550002;6.799999;;;;;;;14.39;100;95454.97;;;;
2022/08/21 05:51:08;;;;;;;7.550002;6.799999;;;;;;;14.39;100;95454.97;;;;
2022/08/21 05:52:12;;;;;;;7.550002;6.799999;;;;;;;14.39;100;95454.97;;;;
2022/08/21 05:53:19;;;;;;;7.550002;6.799999;;;;;;;14.39;100;95454.97;;;;
2022/08/21 05:54:21;;;;;;;7.550002;6.799999;;;;;;;14.39;100;95454.97;;;;
2022/08/21 05:55:21;;;;;;;7.550002;6.799999;;;;;;;14.39;100;95454.97;;;;
2022/08/21 05:56:22;;;;;;;7.550002;6.799999;;;;;;;14.39;100;95454.97;;;;
2022/08/21 05:57:23;;;;;;;7.550002;6.799999;;;;;;;14.39;100;95454.97;;;;
2022/08/21 05:58:23;;;;;;;7.649999;6.95;;;;;;;14.83;100;95464.99;;;;
2022/08/21 05:59:24;;;;;;;7.649999;6.95;;;;;;;14.83;100;95464.99;;;;
2022/08/21 06:00:24;;;;;;;7.649999;6.95;;;;;;;14.83;100;95464.99;;;;
2022/08/21 06:01:25;;;;;;;7.649999;6.95;;;;;;;14.83;100;95464.99;;;;
2022/08/21 06:02:25;;;;;;;7.649999;6.95;;;;;;;14.83;100;95464.99;;;;
2022/08/21 06:03:26;;;;;;;7.649999;6.95;;;;;;;14.83;100;95464.99;;;;
2022/08/21 06:04:29;;;;;;;7.649999;6.95;;;;;;;14.83;100;95464.99;;;;
2022/08/21 06:05:30;;;;;;;7.649999;6.95;;;;;;;14.83;100;95464.99;;;;
2022/08/21 06:06:30;;;;;;;7.649999;6.95;;;;;;;14.83;100;95464.99;;;;
2022/08/21 06:07:31;;;;;;;7.649999;6.95;;;;;;;14.83;100;95464.99;;;;